createdAt,value
2023-05-23T00:00:15.169Z,51.49
2023-05-23T00:01:16.161Z,51.47
2023-05-23T00:02:16.318Z,51.45
2023-05-23T00:03:16.404Z,51.49
2023-05-23T00:04:16.206Z,51.48
2023-05-23T00:05:15.142Z,51.50
2023-05-23T00:06:16.143Z,51.48
2023-05-23T00:07:15.171Z,51.51
2023-05-23T00:08:15.253Z,51.51
2023-05-23T00:09:16.299Z,51.52
2023-05-23T00:10:15.370Z,51.49
2023-05-23T00:11:16.420Z,51.52
2023-05-23T00:12:16.496Z,51.50
2023-05-23T00:13:15.529Z,51.48
2023-05-23T00:14:15.583Z,51.49
2023-05-23T00:15:16.619Z,51.50
2023-05-23T00:16:16.698Z,51.51
2023-05-23T00:17:16.753Z,51.50
2023-05-23T00:18:16.951Z,51.50
2023-05-23T00:19:15.916Z,51.51
2023-05-23T00:20:15.951Z,51.52
2023-05-23T00:21:16.027Z,51.50
2023-05-23T00:22:16.057Z,51.52
2023-05-23T00:23:16.132Z,51.51
2023-05-23T00:24:17.149Z,51.54
2023-05-23T00:25:17.221Z,51.51
2023-05-23T00:26:16.274Z,51.52
2023-05-23T00:27:17.334Z,51.54
2023-05-23T00:28:16.374Z,51.54
2023-05-23T00:29:17.433Z,51.52
2023-05-23T00:30:16.443Z,51.52
2023-05-23T00:31:16.548Z,51.55
2023-05-23T00:32:17.538Z,51.55
2023-05-23T00:33:17.605Z,51.52
2023-05-23T00:34:18.054Z,51.53
2023-05-23T00:35:16.650Z,51.54
2023-05-23T00:36:17.707Z,51.53
2023-05-23T00:37:16.776Z,51.57
2023-05-23T00:38:17.844Z,51.52
2023-05-23T00:39:17.924Z,51.56
2023-05-23T00:40:17.968Z,51.56
2023-05-23T00:41:18.020Z,51.57
2023-05-23T00:42:18.080Z,51.55
2023-05-23T00:43:17.134Z,51.60
2023-05-23T00:44:18.223Z,51.56
2023-05-23T00:45:18.250Z,51.58
2023-05-23T00:46:18.338Z,51.60
2023-05-23T00:47:18.383Z,51.59
2023-05-23T00:48:18.417Z,51.59
2023-05-23T00:49:18.483Z,51.58
2023-05-23T00:50:17.670Z,51.60
2023-05-23T00:51:18.592Z,51.60
2023-05-23T00:52:18.650Z,51.57
2023-05-23T00:53:18.721Z,51.58
2023-05-23T00:54:17.752Z,51.60
2023-05-23T00:55:17.786Z,51.60
2023-05-23T00:56:18.824Z,51.59
2023-05-23T00:57:17.884Z,51.59
2023-05-23T00:58:18.922Z,51.57
2023-05-23T00:59:18.975Z,51.59
2023-05-23T01:00:19.036Z,51.60
2023-05-23T01:01:18.118Z,51.60
2023-05-23T01:02:19.174Z,51.61
2023-05-23T01:03:19.237Z,51.59
2023-05-23T01:04:19.256Z,51.60
2023-05-23T01:05:19.443Z,51.63
2023-05-23T01:06:18.340Z,51.62
2023-05-23T01:07:19.381Z,51.64
2023-05-23T01:08:18.454Z,51.62
2023-05-23T01:09:18.491Z,51.61
2023-05-23T01:10:19.545Z,51.61
2023-05-23T01:11:19.581Z,51.63
2023-05-23T01:12:18.653Z,51.61
2023-05-23T01:13:18.681Z,51.61
2023-05-23T01:14:19.706Z,51.63
2023-05-23T01:15:18.759Z,51.64
2023-05-23T01:16:19.903Z,51.64
2023-05-23T01:17:19.902Z,51.67
2023-05-23T01:18:19.930Z,51.63
2023-05-23T01:19:19.041Z,51.64
2023-05-23T01:20:20.048Z,51.64
2023-05-23T01:21:20.205Z,51.65
2023-05-23T01:22:19.138Z,51.64
2023-05-23T01:23:19.187Z,51.62
2023-05-23T01:24:19.232Z,51.66
2023-05-23T01:25:20.269Z,51.64
2023-05-23T01:26:20.351Z,51.62
2023-05-23T01:27:19.395Z,51.64
2023-05-23T01:28:20.430Z,51.63
2023-05-23T01:29:20.472Z,51.66
2023-05-23T01:30:20.509Z,51.65
2023-05-23T01:31:19.590Z,51.64
2023-05-23T01:32:20.553Z,51.66
2023-05-23T01:33:19.615Z,51.62
2023-05-23T01:34:20.709Z,51.66
2023-05-23T01:35:20.709Z,51.62
2023-05-23T01:36:19.773Z,51.64
2023-05-23T01:37:19.961Z,51.65
2023-05-23T01:38:20.859Z,51.62
2023-05-23T01:39:20.918Z,51.64
2023-05-23T01:40:20.974Z,51.66
2023-05-23T01:41:20.022Z,51.66
2023-05-23T01:42:20.069Z,51.65
2023-05-23T01:43:21.132Z,51.65
2023-05-23T01:44:21.250Z,51.67
2023-05-23T01:45:21.079Z,51.65
2023-05-23T01:46:21.188Z,51.69
2023-05-23T01:47:21.159Z,51.65
2023-05-23T01:48:20.224Z,51.68
2023-05-23T01:49:20.226Z,51.65
2023-05-23T01:50:21.253Z,51.65
2023-05-23T01:51:20.289Z,51.69
2023-05-23T01:52:20.352Z,51.68
2023-05-23T01:53:20.490Z,51.68
2023-05-23T01:54:20.403Z,51.68
2023-05-23T01:55:21.423Z,51.69
2023-05-23T01:56:20.465Z,51.71
2023-05-23T01:57:21.530Z,51.69
2023-05-23T01:58:20.515Z,51.69
2023-05-23T01:59:20.534Z,51.69
2023-05-23T02:00:20.565Z,51.69
2023-05-23T02:01:21.610Z,51.72
2023-05-23T02:02:20.660Z,51.69
2023-05-23T02:03:20.714Z,51.71
2023-05-23T02:04:20.538Z,51.69
2023-05-23T02:05:20.542Z,51.70
2023-05-23T02:06:21.557Z,51.68
2023-05-23T02:07:21.565Z,51.69
2023-05-23T02:08:21.548Z,51.71
2023-05-23T02:09:21.668Z,51.71
2023-05-23T02:10:21.589Z,51.70
2023-05-23T02:11:21.600Z,51.70
2023-05-23T02:12:21.598Z,51.74
2023-05-23T02:13:20.623Z,51.73
2023-05-23T02:14:21.624Z,51.73
2023-05-23T02:15:20.657Z,51.75
2023-05-23T02:16:20.724Z,51.73
2023-05-23T02:17:20.725Z,51.73
2023-05-23T02:18:21.742Z,51.73
2023-05-23T02:19:21.860Z,51.73
2023-05-23T02:20:20.835Z,51.71
2023-05-23T02:21:20.869Z,51.76
2023-05-23T02:22:20.957Z,51.74
2023-05-23T02:23:20.925Z,51.75
2023-05-23T02:24:21.953Z,51.75
2023-05-23T02:25:22.102Z,51.76
2023-05-23T02:26:21.009Z,51.75
2023-05-23T02:27:21.044Z,51.76
2023-05-23T02:28:21.145Z,51.76
2023-05-23T02:29:21.054Z,51.76
2023-05-23T02:30:22.087Z,51.74
2023-05-23T02:31:22.177Z,51.73
2023-05-23T02:32:22.150Z,51.74
2023-05-23T02:33:22.169Z,51.73
2023-05-23T02:34:21.176Z,51.74
2023-05-23T02:35:21.192Z,51.75
2023-05-23T02:36:22.190Z,51.74
2023-05-23T02:37:22.227Z,51.73
2023-05-23T02:38:22.272Z,51.73
2023-05-23T02:39:21.256Z,51.74
2023-05-23T02:40:22.261Z,51.75
2023-05-23T02:41:21.375Z,51.73
2023-05-23T02:42:22.267Z,51.74
2023-05-23T02:43:21.267Z,51.74
2023-05-23T02:44:21.266Z,51.74
2023-05-23T02:45:22.272Z,51.78
2023-05-23T02:46:22.288Z,51.73
2023-05-23T02:47:22.325Z,51.75
2023-05-23T02:48:22.256Z,51.77
2023-05-23T02:49:22.266Z,51.76
2023-05-23T02:50:22.260Z,51.76
2023-05-23T02:51:22.268Z,51.76
2023-05-23T02:52:21.257Z,51.76
2023-05-23T02:53:22.247Z,51.76
2023-05-23T02:54:22.229Z,51.74
2023-05-23T02:55:22.239Z,51.73
2023-05-23T02:56:22.334Z,51.75
2023-05-23T02:57:22.358Z,51.79
2023-05-23T02:58:22.273Z,51.76
2023-05-23T02:59:22.236Z,51.73
2023-05-23T03:00:21.267Z,51.78
2023-05-23T03:01:21.247Z,51.79
2023-05-23T03:02:21.239Z,51.77
2023-05-23T03:03:22.271Z,51.80
2023-05-23T03:04:22.245Z,51.77
2023-05-23T03:05:22.216Z,51.75
2023-05-23T03:06:21.227Z,51.79
2023-05-23T03:07:28.168Z,51.75
2023-05-23T03:08:22.205Z,51.79
2023-05-23T03:09:21.196Z,51.79
2023-05-23T03:10:22.182Z,51.77
2023-05-23T03:11:22.189Z,51.81
2023-05-23T03:12:21.171Z,51.79
2023-05-23T03:13:21.327Z,51.77
2023-05-23T03:14:21.163Z,51.81
2023-05-23T03:15:22.155Z,51.83
2023-05-23T03:16:22.203Z,51.78
2023-05-23T03:17:22.190Z,51.81
2023-05-23T03:18:22.135Z,51.80
2023-05-23T03:19:22.165Z,51.81
2023-05-23T03:20:21.120Z,51.80
2023-05-23T03:21:22.106Z,51.81
2023-05-23T03:22:21.109Z,51.76
2023-05-23T03:23:21.105Z,51.77
2023-05-23T03:24:21.172Z,51.79
2023-05-23T03:25:22.122Z,51.77
2023-05-23T03:26:22.076Z,51.77
2023-05-23T03:27:21.070Z,51.81
2023-05-23T03:28:21.071Z,51.80
2023-05-23T03:29:22.185Z,51.82
2023-05-23T03:30:21.054Z,51.79
2023-05-23T03:31:22.072Z,51.78
2023-05-23T03:32:22.052Z,51.80
2023-05-23T03:33:22.027Z,51.82
2023-05-23T03:34:21.023Z,51.80
2023-05-23T03:35:21.020Z,51.81
2023-05-23T03:36:22.022Z,51.80
2023-05-23T03:37:22.035Z,51.82
2023-05-23T03:38:22.010Z,51.80
2023-05-23T03:39:21.993Z,51.77
2023-05-23T03:40:20.988Z,51.82
2023-05-23T03:41:21.981Z,51.79
2023-05-23T03:42:22.001Z,51.80
2023-05-23T03:43:20.993Z,51.82
2023-05-23T03:44:21.963Z,51.82
2023-05-23T03:45:22.093Z,51.79
2023-05-23T03:46:21.031Z,51.79
2023-05-23T03:47:20.948Z,51.83
2023-05-23T03:48:20.964Z,51.81
2023-05-23T03:49:21.928Z,51.82
2023-05-23T03:50:20.924Z,51.80
2023-05-23T03:51:21.930Z,51.81
2023-05-23T03:52:21.919Z,51.79
2023-05-23T03:53:21.905Z,51.80
2023-05-23T03:54:21.895Z,51.81
2023-05-23T03:55:21.891Z,51.85
2023-05-23T03:56:20.893Z,51.82
2023-05-23T03:57:20.877Z,51.82
2023-05-23T03:58:20.869Z,51.82
2023-05-23T03:59:20.878Z,51.85
2023-05-23T04:00:20.861Z,51.88
2023-05-23T04:01:20.982Z,51.86
2023-05-23T04:02:21.965Z,51.87
2023-05-23T04:03:21.985Z,51.88
2023-05-23T04:04:21.914Z,51.83
2023-05-23T04:05:20.830Z,51.83
2023-05-23T04:06:21.829Z,51.86
2023-05-23T04:07:21.095Z,51.88
2023-05-23T04:08:21.813Z,51.87
2023-05-23T04:09:21.800Z,51.85
2023-05-23T04:10:20.825Z,51.87
2023-05-23T04:11:20.799Z,51.87
2023-05-23T04:12:21.781Z,51.89
2023-05-23T04:13:21.776Z,51.86
2023-05-23T04:14:21.767Z,51.87
2023-05-23T04:15:21.840Z,51.86
2023-05-23T04:16:20.765Z,51.89
2023-05-23T04:17:21.975Z,51.87
2023-05-23T04:18:20.745Z,51.92
2023-05-23T04:19:20.735Z,51.93
2023-05-23T04:20:20.721Z,51.89
2023-05-23T04:21:21.734Z,51.90
2023-05-23T04:22:21.737Z,51.92
2023-05-23T04:23:20.745Z,51.90
2023-05-23T04:24:21.724Z,51.91
2023-05-23T04:25:20.698Z,51.92
2023-05-23T04:26:20.684Z,51.92
2023-05-23T04:27:20.704Z,51.90
2023-05-23T04:28:20.689Z,51.91
2023-05-23T04:29:21.692Z,51.88
2023-05-23T04:30:20.669Z,51.89
2023-05-23T04:31:20.722Z,51.91
2023-05-23T04:32:21.680Z,51.91
2023-05-23T04:33:20.784Z,51.92
2023-05-23T04:34:21.652Z,51.91
2023-05-23T04:35:21.644Z,51.90
2023-05-23T04:36:21.634Z,51.90
2023-05-23T04:37:21.631Z,51.92
2023-05-23T04:38:21.625Z,51.93
2023-05-23T04:39:20.603Z,51.93
2023-05-23T04:40:20.598Z,51.93
2023-05-23T04:41:21.623Z,51.93
2023-05-23T04:42:21.586Z,51.90
2023-05-23T04:43:21.594Z,51.90
2023-05-23T04:44:20.573Z,51.93
2023-05-23T04:45:21.569Z,51.92
2023-05-23T04:46:20.631Z,51.93
2023-05-23T04:47:20.551Z,51.92
2023-05-23T04:48:21.576Z,51.97
2023-05-23T04:49:20.681Z,51.94
2023-05-23T04:50:21.540Z,51.95
2023-05-23T04:51:21.539Z,51.97
2023-05-23T04:52:21.533Z,51.96
2023-05-23T04:53:21.511Z,51.95
2023-05-23T04:54:20.517Z,51.95
2023-05-23T04:55:21.527Z,51.97
2023-05-23T04:56:22.075Z,51.93
2023-05-23T04:57:21.500Z,51.97
2023-05-23T04:58:21.502Z,51.93
2023-05-23T04:59:21.491Z,51.95
2023-05-23T05:00:21.515Z,51.93
2023-05-23T05:01:22.244Z,51.95
2023-05-23T05:02:22.082Z,51.95
2023-05-23T05:03:20.461Z,51.98
2023-05-23T05:04:20.492Z,51.95
2023-05-23T05:05:21.577Z,51.95
2023-05-23T05:06:21.482Z,51.92
2023-05-23T05:07:20.438Z,51.94
2023-05-23T05:08:21.435Z,51.94
2023-05-23T05:09:21.416Z,51.92
2023-05-23T05:10:21.411Z,51.93
2023-05-23T05:11:21.398Z,51.94
2023-05-23T05:12:20.420Z,51.97
2023-05-23T05:13:20.398Z,51.97
2023-05-23T05:14:20.387Z,51.96
2023-05-23T05:15:20.384Z,51.98
2023-05-23T05:16:20.457Z,51.98
2023-05-23T05:17:21.421Z,51.98
2023-05-23T05:18:21.353Z,51.98
2023-05-23T05:19:20.360Z,51.98
2023-05-23T05:20:21.385Z,51.99
2023-05-23T05:21:21.480Z,52.00
2023-05-23T05:22:20.337Z,52.00
2023-05-23T05:23:20.301Z,51.98
2023-05-23T05:24:21.304Z,52.00
2023-05-23T05:25:20.304Z,52.00
2023-05-23T05:26:21.307Z,51.99
2023-05-23T05:27:21.295Z,51.96
2023-05-23T05:28:21.282Z,51.98
2023-05-23T05:29:21.314Z,51.99
2023-05-23T05:30:21.284Z,52.04
2023-05-23T05:31:21.281Z,52.01
2023-05-23T05:32:20.337Z,51.97
2023-05-23T05:33:20.266Z,52.00
2023-05-23T05:34:21.235Z,52.15
2023-05-23T05:35:21.256Z,52.18
2023-05-23T05:36:21.235Z,52.07
2023-05-23T05:37:21.399Z,52.04
2023-05-23T05:38:21.251Z,52.14
2023-05-23T05:39:21.224Z,52.14
2023-05-23T05:40:21.242Z,52.18
2023-05-23T05:41:21.265Z,52.21
2023-05-23T05:42:21.205Z,52.22
2023-05-23T05:43:21.190Z,52.41
2023-05-23T05:44:20.271Z,52.33
2023-05-23T05:45:21.324Z,52.24
2023-05-23T05:46:21.369Z,52.38
2023-05-23T05:47:21.174Z,52.38
2023-05-23T05:48:20.156Z,52.29
2023-05-23T05:49:21.149Z,52.21
2023-05-23T05:50:21.149Z,52.29
2023-05-23T05:51:21.155Z,52.50
2023-05-23T05:52:21.150Z,52.56
2023-05-23T05:53:21.245Z,52.48
2023-05-23T05:54:21.161Z,52.39
2023-05-23T05:55:21.130Z,52.37
2023-05-23T05:56:21.135Z,52.75
2023-05-23T05:57:21.137Z,52.56
2023-05-23T05:58:21.141Z,52.48
2023-05-23T05:59:21.225Z,52.79
2023-05-23T06:00:21.088Z,52.80
2023-05-23T06:01:21.105Z,53.14
2023-05-23T06:02:20.693Z,52.94
2023-05-23T06:03:21.147Z,52.87
2023-05-23T06:04:21.137Z,52.99
2023-05-23T06:05:21.054Z,53.33
2023-05-23T06:06:21.051Z,53.24
2023-05-23T06:07:21.094Z,53.41
2023-05-23T06:08:20.328Z,53.75
2023-05-23T06:09:20.397Z,53.74
2023-05-23T06:10:20.472Z,53.94
2023-05-23T06:11:20.254Z,53.99
2023-05-23T06:12:21.317Z,54.16
2023-05-23T06:13:21.299Z,54.03
2023-05-23T06:14:21.419Z,54.11
2023-05-23T06:15:21.552Z,54.37
2023-05-23T06:16:20.681Z,54.34
2023-05-23T06:17:21.853Z,54.44
2023-05-23T06:18:21.645Z,54.50
2023-05-23T06:19:21.663Z,54.68
2023-05-23T06:20:21.574Z,55.24
2023-05-23T06:21:20.532Z,54.92
2023-05-23T06:22:21.577Z,55.06
2023-05-23T06:23:21.549Z,55.09
2023-05-23T06:24:20.659Z,55.03
2023-05-23T06:25:21.648Z,55.18
2023-05-23T06:26:21.572Z,55.15
2023-05-23T06:27:27.502Z,55.29
2023-05-23T06:28:20.459Z,55.38
2023-05-23T06:29:21.449Z,55.40
2023-05-23T06:30:21.462Z,55.46
2023-05-23T06:31:21.469Z,55.63
2023-05-23T06:32:21.481Z,55.67
2023-05-23T06:33:21.433Z,56.72
2023-05-23T06:34:21.425Z,55.94
2023-05-23T06:35:20.409Z,55.92
2023-05-23T06:36:21.419Z,56.01
2023-05-23T06:37:21.473Z,56.15
2023-05-23T06:38:21.401Z,56.25
2023-05-23T06:39:20.380Z,56.27
2023-05-23T06:40:20.394Z,56.38
2023-05-23T06:41:20.513Z,56.49
2023-05-23T06:42:21.371Z,56.56
2023-05-23T06:43:21.369Z,56.63
2023-05-23T06:44:20.365Z,56.70
2023-05-23T06:45:21.359Z,57.18
2023-05-23T06:46:21.390Z,57.01
2023-05-23T06:47:21.370Z,56.70
2023-05-23T06:48:21.320Z,56.83
2023-05-23T06:49:21.312Z,56.97
2023-05-23T06:50:21.321Z,57.02
2023-05-23T06:51:21.368Z,58.08
2023-05-23T06:52:20.291Z,57.54
2023-05-23T06:53:21.562Z,57.06
2023-05-23T06:54:21.283Z,57.29
2023-05-23T06:55:21.369Z,57.13
2023-05-23T06:56:21.413Z,57.56
2023-05-23T06:57:20.584Z,57.32
2023-05-23T06:58:20.574Z,57.36
2023-05-23T06:59:21.578Z,57.34
2023-05-23T07:00:20.626Z,57.46
2023-05-23T07:01:21.670Z,57.63
2023-05-23T07:02:20.714Z,57.26
2023-05-23T07:03:21.666Z,57.35
2023-05-23T07:04:21.646Z,57.37
2023-05-23T07:05:21.700Z,57.28
2023-05-23T07:06:20.690Z,57.59
2023-05-23T07:07:20.649Z,57.38
2023-05-23T07:08:20.661Z,57.29
2023-05-23T07:09:21.671Z,57.30
2023-05-23T07:10:21.677Z,57.39
2023-05-23T07:11:20.697Z,57.40
2023-05-23T07:12:20.706Z,57.45
2023-05-23T07:13:21.823Z,57.57
2023-05-23T07:14:21.693Z,57.44
2023-05-23T07:15:20.714Z,57.47
2023-05-23T07:16:20.762Z,57.58
2023-05-23T07:17:20.835Z,57.41
2023-05-23T07:18:21.738Z,57.39
2023-05-23T07:19:20.784Z,57.63
2023-05-23T07:20:20.757Z,57.71
2023-05-23T07:21:21.763Z,57.54
2023-05-23T07:22:21.772Z,57.46
2023-05-23T07:23:21.829Z,57.51
2023-05-23T07:24:22.855Z,57.85
2023-05-23T07:25:20.819Z,58.00
2023-05-23T07:26:21.791Z,57.86
2023-05-23T07:27:21.790Z,57.92
2023-05-23T07:28:20.781Z,57.86
2023-05-23T07:29:21.919Z,58.03
2023-05-23T07:30:21.781Z,57.60
2023-05-23T07:31:21.892Z,57.73
2023-05-23T07:32:21.770Z,57.82
2023-05-23T07:33:21.786Z,57.66
2023-05-23T07:34:21.745Z,57.87
2023-05-23T07:35:21.755Z,57.85
2023-05-23T07:36:21.748Z,57.82
2023-05-23T07:37:21.748Z,57.65
2023-05-23T07:38:21.743Z,57.73
2023-05-23T07:39:20.727Z,57.69
2023-05-23T07:40:20.725Z,57.85
2023-05-23T07:41:20.733Z,57.65
2023-05-23T07:42:21.694Z,57.70
2023-05-23T07:43:21.697Z,57.71
2023-05-23T07:44:24.655Z,57.77
2023-05-23T07:45:21.691Z,57.71
2023-05-23T07:46:21.717Z,57.70
2023-05-23T07:47:21.747Z,58.33
2023-05-23T07:48:22.109Z,58.22
2023-05-23T07:49:21.671Z,58.10
2023-05-23T07:50:21.660Z,57.97
2023-05-23T07:51:21.660Z,57.84
2023-05-23T07:52:20.639Z,57.62
2023-05-23T07:53:22.098Z,57.48
2023-05-23T07:54:21.638Z,57.53
2023-05-23T07:55:21.609Z,57.52
2023-05-23T07:56:20.621Z,57.50
2023-05-23T07:57:20.609Z,57.44
2023-05-23T07:58:20.596Z,57.48
2023-05-23T07:59:20.582Z,57.44
2023-05-23T08:00:21.586Z,57.35
2023-05-23T08:01:20.600Z,57.45
2023-05-23T08:02:20.630Z,57.43
2023-05-23T08:03:21.630Z,57.41
2023-05-23T08:04:21.599Z,57.35
2023-05-23T08:05:21.537Z,57.47
2023-05-23T08:06:20.532Z,57.43
2023-05-23T08:07:21.539Z,57.50
2023-05-23T08:08:21.523Z,57.35
2023-05-23T08:09:21.532Z,57.41
2023-05-23T08:10:21.538Z,57.42
2023-05-23T08:11:20.524Z,57.35
2023-05-23T08:12:20.564Z,57.46
2023-05-23T08:13:21.577Z,57.45
2023-05-23T08:14:20.573Z,57.40
2023-05-23T08:15:21.592Z,57.41
2023-05-23T08:16:21.703Z,57.39
2023-05-23T08:17:20.840Z,57.41
2023-05-23T08:18:21.744Z,57.39
2023-05-23T08:19:21.784Z,57.37
2023-05-23T08:20:21.775Z,57.40
2023-05-23T08:21:20.800Z,57.40
2023-05-23T08:22:21.830Z,57.36
2023-05-23T08:23:20.867Z,57.30
2023-05-23T08:24:20.872Z,57.39
2023-05-23T08:25:21.896Z,57.40
2023-05-23T08:26:20.931Z,57.35
2023-05-23T08:27:20.936Z,57.40
2023-05-23T08:28:21.984Z,57.33
2023-05-23T08:29:22.031Z,57.35
2023-05-23T08:30:22.090Z,57.37
2023-05-23T08:31:22.104Z,57.26
2023-05-23T08:32:22.271Z,57.33
2023-05-23T08:33:21.260Z,57.41
2023-05-23T08:34:22.221Z,57.30
2023-05-23T08:35:21.250Z,57.29
2023-05-23T08:36:22.292Z,57.23
2023-05-23T08:37:22.330Z,57.27
2023-05-23T08:38:22.352Z,57.25
2023-05-23T08:39:22.385Z,57.29
2023-05-23T08:40:21.603Z,57.27
2023-05-23T08:41:22.469Z,57.28
2023-05-23T08:42:22.515Z,57.28
2023-05-23T08:43:22.627Z,58.35
2023-05-23T08:44:22.110Z,57.88
2023-05-23T08:45:21.607Z,57.85
2023-05-23T08:46:22.644Z,57.67
2023-05-23T08:47:21.643Z,57.56
2023-05-23T08:48:22.650Z,57.44
2023-05-23T08:49:22.699Z,57.41
2023-05-23T08:50:23.420Z,57.32
2023-05-23T08:51:22.629Z,57.28
2023-05-23T08:52:22.646Z,57.53
2023-05-23T08:53:22.719Z,57.76
2023-05-23T08:54:22.653Z,57.79
2023-05-23T08:55:22.684Z,57.50
2023-05-23T08:56:22.672Z,57.39
2023-05-23T08:57:21.702Z,57.32
2023-05-23T08:58:22.131Z,57.31
2023-05-23T08:59:22.730Z,57.36
2023-05-23T09:00:22.732Z,57.48
2023-05-23T09:01:22.772Z,57.35
2023-05-23T09:02:22.826Z,57.32
2023-05-23T09:03:21.719Z,57.32
2023-05-23T09:04:21.733Z,57.25
2023-05-23T09:05:21.808Z,57.38
2023-05-23T09:06:22.730Z,57.32
2023-05-23T09:07:22.752Z,57.35
2023-05-23T09:08:22.749Z,57.31
2023-05-23T09:09:21.740Z,57.48
2023-05-23T09:10:21.740Z,57.59
2023-05-23T09:11:22.727Z,57.54
2023-05-23T09:12:22.733Z,57.49
2023-05-23T09:13:22.760Z,57.50
2023-05-23T09:14:21.766Z,57.53
2023-05-23T09:15:22.746Z,57.55
2023-05-23T09:16:22.924Z,57.51
2023-05-23T09:17:21.812Z,57.53
2023-05-23T09:18:21.794Z,57.53
2023-05-23T09:19:22.846Z,57.51
2023-05-23T09:20:21.839Z,57.59
2023-05-23T09:21:22.841Z,57.65
2023-05-23T09:22:22.821Z,57.88
2023-05-23T09:23:22.839Z,57.75
2023-05-23T09:24:21.861Z,57.86
2023-05-23T09:25:22.866Z,57.88
2023-05-23T09:26:22.877Z,57.76
2023-05-23T09:27:22.887Z,57.70
2023-05-23T09:28:22.888Z,57.65
2023-05-23T09:29:22.902Z,57.65
2023-05-23T09:30:22.904Z,57.60
2023-05-23T09:31:22.976Z,57.73
2023-05-23T09:32:22.073Z,57.73
2023-05-23T09:33:22.975Z,57.68
2023-05-23T09:34:21.962Z,57.56
2023-05-23T09:35:21.973Z,57.51
2023-05-23T09:36:21.999Z,57.58
2023-05-23T09:37:23.025Z,57.57
2023-05-23T09:38:22.047Z,57.64
2023-05-23T09:39:23.036Z,57.51
2023-05-23T09:40:23.431Z,57.48
2023-05-23T09:41:22.041Z,57.49
2023-05-23T09:42:23.111Z,57.46
2023-05-23T09:43:22.091Z,57.33
2023-05-23T09:44:22.110Z,57.40
2023-05-23T09:45:22.125Z,57.37
2023-05-23T09:46:23.276Z,57.31
2023-05-23T09:47:22.292Z,57.73
2023-05-23T09:48:23.653Z,57.93
2023-05-23T09:49:23.178Z,57.72
2023-05-23T09:50:22.178Z,57.62
2023-05-23T09:51:23.211Z,57.50
2023-05-23T09:52:23.195Z,57.40
2023-05-23T09:53:23.209Z,57.38
2023-05-23T09:54:22.145Z,57.45
2023-05-23T09:55:23.167Z,57.44
2023-05-23T09:56:23.146Z,57.43
2023-05-23T09:57:23.148Z,57.50
2023-05-23T09:58:23.146Z,57.40
2023-05-23T09:59:23.149Z,57.33
2023-05-23T10:00:23.161Z,57.30
2023-05-23T10:01:23.208Z,57.28
2023-05-23T10:02:28.662Z,57.25
2023-05-23T10:03:22.124Z,57.30
2023-05-23T10:04:23.165Z,57.29
2023-05-23T10:05:23.121Z,57.26
2023-05-23T10:06:23.126Z,57.21
2023-05-23T10:07:23.173Z,57.19
2023-05-23T10:08:22.125Z,57.21
2023-05-23T10:09:23.136Z,57.21
2023-05-23T10:10:23.090Z,57.16
2023-05-23T10:11:23.090Z,57.09
2023-05-23T10:12:23.091Z,57.06
2023-05-23T10:13:22.085Z,57.17
2023-05-23T10:14:22.073Z,57.25
2023-05-23T10:15:23.086Z,57.20
2023-05-23T10:16:23.061Z,57.18
2023-05-23T10:17:23.083Z,57.25
2023-05-23T10:18:22.037Z,57.27
2023-05-23T10:19:22.080Z,57.22
2023-05-23T10:20:23.049Z,57.23
2023-05-23T10:21:23.035Z,57.27
2023-05-23T10:22:23.028Z,57.24
2023-05-23T10:23:22.022Z,57.25
2023-05-23T10:24:23.001Z,57.22
2023-05-23T10:25:22.020Z,57.19
2023-05-23T10:26:22.988Z,57.16
2023-05-23T10:27:22.981Z,57.19
2023-05-23T10:28:27.152Z,57.17
2023-05-23T10:29:22.957Z,57.17
2023-05-23T10:30:22.949Z,57.15
2023-05-23T10:31:22.998Z,57.14
2023-05-23T10:32:22.998Z,57.13
2023-05-23T10:33:21.987Z,57.16
2023-05-23T10:34:22.987Z,57.13
2023-05-23T10:35:23.019Z,57.10
2023-05-23T10:36:23.021Z,57.08
2023-05-23T10:37:23.033Z,57.06
2023-05-23T10:38:22.030Z,57.02
2023-05-23T10:39:22.016Z,57.04
2023-05-23T10:40:22.998Z,56.98
2023-05-23T10:41:23.036Z,56.97
2023-05-23T10:42:23.019Z,56.95
2023-05-23T10:43:23.166Z,56.92
2023-05-23T10:44:23.086Z,57.16
2023-05-23T10:45:22.159Z,57.36
2023-05-23T10:46:22.338Z,57.12
2023-05-23T10:47:22.301Z,57.00
2023-05-23T10:48:22.318Z,56.93
2023-05-23T10:49:22.349Z,56.89
2023-05-23T10:50:24.162Z,56.83
2023-05-23T10:51:22.473Z,56.79
2023-05-23T10:52:22.534Z,56.77
2023-05-23T10:53:22.587Z,56.76
2023-05-23T10:54:22.641Z,56.73
2023-05-23T10:55:23.687Z,56.69
2023-05-23T10:56:22.735Z,56.63
2023-05-23T10:57:23.870Z,56.65
2023-05-23T10:58:23.826Z,56.61
2023-05-23T10:59:23.895Z,56.57
2023-05-23T11:00:23.930Z,56.57
2023-05-23T11:01:24.226Z,56.58
2023-05-23T11:02:24.099Z,56.54
2023-05-23T11:03:23.110Z,56.53
2023-05-23T11:04:23.176Z,56.46
2023-05-23T11:05:23.292Z,56.44
2023-05-23T11:06:23.187Z,56.48
2023-05-23T11:07:23.219Z,56.44
2023-05-23T11:08:29.574Z,56.39
2023-05-23T11:09:24.277Z,56.43
2023-05-23T11:10:24.247Z,56.37
2023-05-23T11:11:24.242Z,56.38
2023-05-23T11:12:23.212Z,56.35
2023-05-23T11:13:23.260Z,56.29
2023-05-23T11:14:24.211Z,56.27
2023-05-23T11:15:24.194Z,56.21
2023-05-23T11:16:23.299Z,56.23
2023-05-23T11:17:24.283Z,56.21
2023-05-23T11:18:24.187Z,56.17
2023-05-23T11:19:24.222Z,56.14
2023-05-23T11:20:24.165Z,56.10
2023-05-23T11:21:23.158Z,56.10
2023-05-23T11:22:24.148Z,56.08
2023-05-23T11:23:24.227Z,56.04
2023-05-23T11:24:23.168Z,56.07
2023-05-23T11:25:23.139Z,56.07
2023-05-23T11:26:23.130Z,56.04
2023-05-23T11:27:24.114Z,56.02
2023-05-23T11:28:24.127Z,55.99
2023-05-23T11:29:23.133Z,55.91
2023-05-23T11:30:24.093Z,55.93
2023-05-23T11:31:24.121Z,55.90
2023-05-23T11:32:23.142Z,55.91
2023-05-23T11:33:23.102Z,55.86
2023-05-23T11:34:24.070Z,55.89
2023-05-23T11:35:24.079Z,55.88
2023-05-23T11:36:23.085Z,55.87
2023-05-23T11:37:25.935Z,55.86
2023-05-23T11:38:24.182Z,55.83
2023-05-23T11:39:24.109Z,55.81
2023-05-23T11:40:23.040Z,55.81
2023-05-23T11:41:23.036Z,55.81
2023-05-23T11:42:24.032Z,55.81
2023-05-23T11:43:23.031Z,55.76
2023-05-23T11:44:24.017Z,55.80
2023-05-23T11:45:23.033Z,55.76
2023-05-23T11:46:23.028Z,55.74
2023-05-23T11:47:24.080Z,55.72
2023-05-23T11:48:23.008Z,55.76
2023-05-23T11:49:23.992Z,55.72
2023-05-23T11:50:22.970Z,55.74
2023-05-23T11:51:22.984Z,55.68
2023-05-23T11:52:22.961Z,55.65
2023-05-23T11:53:23.986Z,55.64
2023-05-23T11:54:23.963Z,55.67
2023-05-23T11:55:22.962Z,55.65
2023-05-23T11:56:22.944Z,55.65
2023-05-23T11:57:23.924Z,55.64
2023-05-23T11:58:23.950Z,55.61
2023-05-23T11:59:23.922Z,55.61
2023-05-23T12:00:23.927Z,55.61
2023-05-23T12:01:23.031Z,55.60
2023-05-23T12:02:23.924Z,55.64
2023-05-23T12:03:24.104Z,55.60
2023-05-23T12:04:24.064Z,55.61
2023-05-23T12:05:22.870Z,55.62
2023-05-23T12:06:22.883Z,55.59
2023-05-23T12:07:23.902Z,55.60
2023-05-23T12:08:22.863Z,55.60
2023-05-23T12:09:23.848Z,55.59
2023-05-23T12:10:22.845Z,55.61
2023-05-23T12:11:23.859Z,55.61
2023-05-23T12:12:23.823Z,55.60
2023-05-23T12:13:23.827Z,55.61
2023-05-23T12:14:23.823Z,55.63
2023-05-23T12:15:22.822Z,55.62
2023-05-23T12:16:22.814Z,55.63
2023-05-23T12:17:23.819Z,55.68
2023-05-23T12:18:22.796Z,56.25
2023-05-23T12:19:22.941Z,57.21
2023-05-23T12:20:22.781Z,57.55
2023-05-23T12:21:23.777Z,57.36
2023-05-23T12:22:23.776Z,57.27
2023-05-23T12:23:22.798Z,57.25
2023-05-23T12:24:23.747Z,57.32
2023-05-23T12:25:23.770Z,57.17
2023-05-23T12:26:23.763Z,57.38
2023-05-23T12:27:23.758Z,57.24
2023-05-23T12:28:23.823Z,57.16
2023-05-23T12:29:23.883Z,57.09
2023-05-23T12:30:23.924Z,57.07
2023-05-23T12:31:23.056Z,57.04
2023-05-23T12:32:24.056Z,57.06
2023-05-23T12:33:24.099Z,57.01
2023-05-23T12:34:24.122Z,57.04
2023-05-23T12:35:24.158Z,57.06
2023-05-23T12:36:23.217Z,57.06
2023-05-23T12:37:24.253Z,57.05
2023-05-23T12:38:23.291Z,57.04
2023-05-23T12:39:23.340Z,57.04
2023-05-23T12:40:24.388Z,57.00
2023-05-23T12:41:24.410Z,57.06
2023-05-23T12:42:24.433Z,57.02
2023-05-23T12:43:23.489Z,57.02
2023-05-23T12:44:24.545Z,57.01
2023-05-23T12:45:24.554Z,57.00
2023-05-23T12:46:23.618Z,57.10
2023-05-23T12:47:24.670Z,57.06
2023-05-23T12:48:24.677Z,57.07
2023-05-23T12:49:24.720Z,57.06
2023-05-23T12:50:24.733Z,57.06
2023-05-23T12:51:23.773Z,57.05
2023-05-23T12:52:23.820Z,57.11